Time,TemperatureF,DewpointF,PressureIn,WindDirection,WindDirectionDegrees,WindSpeedMPH,WindSpeedGustMPH,Humidity,HourlyPrecipIn,Conditions,Clouds,dailyrainin,SoftwareType,DateUTC
2013-07-27 00:00:00,57.9,55.6,30.03,NW,305,0.0,0.0,92,0.00,RA,BKN,0.00,WeatherDisplay:10.37,2013-07-27 04:00:00,
2013-07-27 00:05:00,57.7,55.4,30.03,NW,305,0.0,0.0,92,0.00,RA,BKN,0.00,WeatherDisplay:10.37,2013-07-27 04:05:00,
2013-07-27 00:10:00,57.7,55.4,30.03,NW,305,0.0,0.0,92,0.00,CLR,BKN,0.00,WeatherDisplay:10.37,2013-07-27 04:10:00,
2013-07-27 00:15:00,57.7,55.4,30.03,NW,305,0.0,0.0,92,0.00,CLR,BKN,0.00,WeatherDisplay:10.37,2013-07-27 04:15:00,
2013-07-27 00:20:00,57.7,55.4,30.03,NW,305,0.0,0.0,92,0.00,CLR,BKN,0.00,WeatherDisplay:10.37,2013-07-27 04:20:00,
2013-07-27 00:25:00,57.6,55.3,30.03,NW,305,0.0,0.0,92,0.00,CLR,BKN,0.00,WeatherDisplay:10.37,2013-07-27 04:25:00,
2013-07-27 00:30:00,57.4,55.1,30.03,NW,305,0.0,0.0,92,0.00,CLR,BKN,0.00,WeatherDisplay:10.37,2013-07-27 04:30:00,
2013-07-27 00:35:00,57.4,55.1,30.03,NW,305,0.0,0.0,92,0.00,CLR,BKN,0.00,WeatherDisplay:10.37,2013-07-27 04:35:00,
2013-07-27 00:40:00,57.2,54.9,30.03,NW,305,0.0,0.0,92,0.00,CLR,BKN,0.00,WeatherDisplay:10.37,2013-07-27 04:40:00,
2013-07-27 00:45:00,57.2,54.9,30.03,NW,305,0.0,0.0,92,0.00,CLR,BKN,0.00,WeatherDisplay:10.37,2013-07-27 04:45:00,
2013-07-27 00:50:00,56.8,54.5,30.03,NW,305,0.0,0.0,92,0.00,CLR,BKN,0.00,WeatherDisplay:10.37,2013-07-27 04:50:00,
2013-07-27 00:55:00,56.8,54.8,30.03,NW,305,0.0,0.0,93,0.00,CLR,BKN,0.00,WeatherDisplay:10.37,2013-07-27 04:55:00,
2013-07-27 01:00:00,56.7,54.7,30.03,NW,305,0.0,0.0,93,0.00,CLR,BKN,0.00,WeatherDisplay:10.37,2013-07-27 05:00:00,
2013-07-27 01:05:00,56.7,54.7,30.03,NW,305,0.0,0.0,93,0.00,CLR,BKN,0.00,WeatherDisplay:10.37,2013-07-27 05:05:00,
2013-07-27 01:10:00,56.5,54.5,30.03,NW,305,0.0,0.0,93,0.00,CLR,BKN,0.00,WeatherDisplay:10.37,2013-07-27 05:10:00,
2013-07-27 01:15:00,56.5,54.5,30.03,NW,305,0.0,0.0,93,0.00,CLR,BKN,0.00,WeatherDisplay:10.37,2013-07-27 05:15:00,
2013-07-27 01:20:00,56.5,54.5,30.03,NW,305,0.0,0.0,93,0.00,CLR,BKN,0.00,WeatherDisplay:10.37,2013-07-27 05:20:00,
2013-07-27 01:25:00,56.5,54.5,30.03,NW,305,0.0,0.0,93,0.00,CLR,BKN,0.00,WeatherDisplay:10.37,2013-07-27 05:25:00,
2013-07-27 01:30:00,56.3,54.3,30.03,NW,305,0.0,0.0,93,0.00,CLR,BKN,0.00,WeatherDisplay:10.37,2013-07-27 05:30:00,
2013-07-27 01:35:00,56.3,54.3,30.03,NW,305,0.0,0.0,93,0.00,CLR,BKN,0.00,WeatherDisplay:10.37,2013-07-27 05:35:00,
2013-07-27 01:40:00,56.3,54.3,30.03,NW,305,0.0,0.0,93,0.00,CLR,BKN,0.00,WeatherDisplay:10.37,2013-07-27 05:40:00,
2013-07-27 01:45:00,56.3,54.3,30.03,NW,305,0.0,0.0,93,0.00,CLR,BKN,0.00,WeatherDisplay:10.37,2013-07-27 05:45:00,
2013-07-27 01:50:00,56.1,54.1,30.03,NW,305,0.0,0.0,93,0.00,CLR,BKN,0.00,WeatherDisplay:10.37,2013-07-27 05:50:00,
2013-07-27 01:55:00,56.1,54.1,30.03,NW,305,0.0,0.0,93,0.00,CLR,BKN,0.00,WeatherDisplay:10.37,2013-07-27 05:55:00,
2013-07-27 02:00:00,56.1,54.1,30.03,NW,305,0.0,0.0,93,0.00,CLR,BKN,0.00,WeatherDisplay:10.37,2013-07-27 06:00:00,
2013-07-27 02:05:00,56.1,54.1,30.03,NW,305,0.0,0.0,93,0.00,CLR,BKN,0.00,WeatherDisplay:10.37,2013-07-27 06:05:00,
2013-07-27 02:10:00,56.1,54.1,30.03,NW,305,0.0,0.0,93,0.00,CLR,BKN,0.00,WeatherDisplay:10.37,2013-07-27 06:10:00,
2013-07-27 02:15:00,56.1,54.1,30.03,NW,305,0.0,0.0,93,0.00,CLR,BKN,0.00,WeatherDisplay:10.37,2013-07-27 06:15:00,
2013-07-27 02:20:00,55.9,53.9,30.03,NW,305,0.0,1.0,93,0.00,CLR,BKN,0.00,WeatherDisplay:10.37,2013-07-27 06:20:00,
2013-07-27 02:25:00,55.9,53.9,30.03,NW,305,0.0,1.0,93,0.00,CLR,BKN,0.00,WeatherDisplay:10.37,2013-07-27 06:25:00,
2013-07-27 02:30:00,55.9,53.9,30.03,NW,305,0.0,1.0,93,0.00,CLR,BKN,0.00,WeatherDisplay:10.37,2013-07-27 06:30:00,
2013-07-27 02:35:00,55.9,53.9,30.03,NW,305,0.0,2.0,93,0.00,CLR,BKN,0.00,WeatherDisplay:10.37,2013-07-27 06:35:00,
2013-07-27 02:41:00,55.9,53.9,30.03,NW,305,0.0,0.0,93,0.00,CLR,BKN,0.00,WeatherDisplay:10.37,2013-07-27 06:41:00,
2013-07-27 02:51:00,55.9,53.9,30.03,NW,305,0.0,0.0,93,0.00,CLR,BKN,0.00,WeatherDisplay:10.37,2013-07-27 06:51:00,
2013-07-27 02:56:00,55.9,53.9,30.03,NW,305,0.0,0.0,93,0.00,CLR,BKN,0.00,WeatherDisplay:10.37,2013-07-27 06:56:00,
2013-07-27 03:01:00,55.6,53.6,30.03,NW,305,0.0,0.0,93,0.00,CLR,BKN,0.00,WeatherDisplay:10.37,2013-07-27 07:01:00,
2013-07-27 03:06:00,55.4,53.4,30.03,NW,305,0.0,0.0,93,0.00,CLR,BKN,0.00,WeatherDisplay:10.37,2013-07-27 07:06:00,
2013-07-27 03:11:00,55.4,53.4,30.03,NW,305,0.0,0.0,93,0.00,CLR,BKN,0.00,WeatherDisplay:10.37,2013-07-27 07:11:00,
2013-07-27 03:21:00,55.0,53.1,30.03,NW,305,0.0,0.0,93,0.00,CLR,BKN,0.00,WeatherDisplay:10.37,2013-07-27 07:21:00,
2013-07-27 03:25:00,55.0,53.1,30.03,NW,305,0.0,0.0,93,0.00,CLR,BKN,0.00,WeatherDisplay:10.37,2013-07-27 07:25:00,
2013-07-27 03:30:00,54.9,52.9,30.03,NW,305,0.0,0.0,93,0.00,CLR,BKN,0.00,WeatherDisplay:10.37,2013-07-27 07:30:00,
2013-07-27 03:35:00,54.9,52.9,30.03,NW,305,0.0,0.0,93,0.00,CLR,BKN,0.00,WeatherDisplay:10.37,2013-07-27 07:35:00,
2013-07-27 03:40:00,54.9,52.9,30.03,NW,305,0.0,0.0,93,0.00,CLR,BKN,0.00,WeatherDisplay:10.37,2013-07-27 07:40:00,
2013-07-27 03:45:00,54.7,53.0,30.03,NW,305,0.0,0.0,94,0.00,CLR,BKN,0.00,WeatherDisplay:10.37,2013-07-27 07:45:00,
2013-07-27 03:50:00,54.7,53.0,30.03,NW,305,0.0,0.0,94,0.00,CLR,BKN,0.00,WeatherDisplay:10.37,2013-07-27 07:50:00,
2013-07-27 03:55:00,54.7,53.0,30.03,NW,305,0.0,0.0,94,0.00,CLR,BKN,0.00,WeatherDisplay:10.37,2013-07-27 07:55:00,
2013-07-27 04:00:00,54.5,52.8,30.03,NW,305,0.0,0.0,94,0.00,CLR,BKN,0.00,WeatherDisplay:10.37,2013-07-27 08:00:00,
2013-07-27 04:05:00,54.5,52.8,30.03,NW,305,0.0,0.0,94,0.00,CLR,BKN,0.00,WeatherDisplay:10.37,2013-07-27 08:05:00,
2013-07-27 04:10:00,54.5,52.8,30.03,NW,305,0.0,0.0,94,0.00,CLR,BKN,0.00,WeatherDisplay:10.37,2013-07-27 08:10:00,
2013-07-27 04:15:00,54.5,52.8,30.03,NW,305,0.0,0.0,94,0.00,CLR,BKN,0.00,WeatherDisplay:10.37,2013-07-27 08:15:00,
2013-07-27 04:20:00,54.5,52.8,30.03,NW,305,0.0,0.0,94,0.00,CLR,BKN,0.00,WeatherDisplay:10.37,2013-07-27 08:20:00,
2013-07-27 04:25:00,54.5,52.8,30.03,NW,305,0.0,0.0,94,0.00,CLR,BKN,0.00,WeatherDisplay:10.37,2013-07-27 08:25:00,
2013-07-27 04:30:00,54.3,52.6,30.03,NW,305,0.0,0.0,94,0.00,CLR,BKN,0.00,WeatherDisplay:10.37,2013-07-27 08:30:00,
2013-07-27 04:35:00,54.3,52.9,30.03,NW,305,0.0,0.0,95,0.00,CLR,BKN,0.00,WeatherDisplay:10.37,2013-07-27 08:35:00,
2013-07-27 04:40:00,54.3,52.9,30.03,NW,305,0.0,0.0,95,0.00,CLR,BKN,0.00,WeatherDisplay:10.37,2013-07-27 08:40:00,
2013-07-27 04:45:00,54.3,52.9,30.03,NW,305,0.0,0.0,95,0.00,CLR,BKN,0.00,WeatherDisplay:10.37,2013-07-27 08:45:00,
2013-07-27 04:50:00,54.3,52.9,30.03,NW,305,0.0,0.0,95,0.00,CLR,BKN,0.00,WeatherDisplay:10.37,2013-07-27 08:50:00,
2013-07-27 04:55:00,54.3,52.9,30.03,NW,305,0.0,0.0,95,0.00,CLR,BKN,0.00,WeatherDisplay:10.37,2013-07-27 08:55:00,
2013-07-27 05:00:00,54.1,52.7,30.03,NW,305,0.0,0.0,95,0.00,CLR,BKN,0.00,WeatherDisplay:10.37,2013-07-27 09:00:00,
2013-07-27 05:05:00,54.1,52.7,30.03,NW,305,0.0,0.0,95,0.00,CLR,BKN,0.00,WeatherDisplay:10.37,2013-07-27 09:05:00,
2013-07-27 05:10:00,54.1,52.7,30.03,NW,305,0.0,0.0,95,0.00,CLR,BKN,0.00,WeatherDisplay:10.37,2013-07-27 09:10:00,
2013-07-27 05:15:00,53.8,52.4,30.03,NW,305,0.0,0.0,95,0.00,CLR,BKN,0.00,WeatherDisplay:10.37,2013-07-27 09:15:00,
2013-07-27 05:20:00,53.6,52.2,30.03,NW,305,0.0,0.0,95,0.00,CLR,BKN,0.00,WeatherDisplay:10.37,2013-07-27 09:20:00,
2013-07-27 05:25:00,53.4,52.0,30.03,NW,305,0.0,0.0,95,0.00,CLR,BKN,0.00,WeatherDisplay:10.37,2013-07-27 09:25:00,
2013-07-27 05:30:00,53.2,51.8,30.03,NW,305,0.0,0.0,95,0.00,CLR,BKN,0.00,WeatherDisplay:10.37,2013-07-27 09:30:00,
2013-07-27 05:35:00,53.1,51.7,30.03,NW,305,0.0,0.0,95,0.00,CLR,BKN,0.00,WeatherDisplay:10.37,2013-07-27 09:35:00,
2013-07-27 05:45:00,53.1,51.7,30.03,NW,305,0.0,0.0,95,0.00,CLR,BKN,0.00,WeatherDisplay:10.37,2013-07-27 09:45:00,
2013-07-27 05:50:00,53.1,51.7,30.06,NW,305,0.0,0.0,95,0.00,CLR,BKN,0.00,WeatherDisplay:10.37,2013-07-27 09:50:00,
2013-07-27 05:55:00,53.1,51.7,30.06,NW,305,0.0,0.0,95,0.00,CLR,BKN,0.00,WeatherDisplay:10.37,2013-07-27 09:55:00,
2013-07-27 06:00:00,52.9,51.5,30.06,NW,305,0.0,0.0,95,0.00,CLR,BKN,0.00,WeatherDisplay:10.37,2013-07-27 10:00:00,
2013-07-27 06:05:00,52.7,51.3,30.06,NW,305,0.0,0.0,95,0.00,CLR,BKN,0.00,WeatherDisplay:10.37,2013-07-27 10:05:00,
2013-07-27 06:10:00,52.7,51.3,30.06,NW,305,0.0,0.0,95,0.00,CLR,BKN,0.00,WeatherDisplay:10.37,2013-07-27 10:10:00,
2013-07-27 06:20:00,52.7,51.3,30.06,NW,305,0.0,0.0,95,0.00,CLR,BKN,0.00,WeatherDisplay:10.37,2013-07-27 10:20:00,
2013-07-27 06:25:00,52.7,51.3,30.06,NW,305,0.0,0.0,95,0.00,CLR,BKN,0.00,WeatherDisplay:10.37,2013-07-27 10:25:00,
2013-07-27 06:30:00,52.9,51.5,30.06,NW,305,0.0,0.0,95,0.00,CLR,BKN,0.00,WeatherDisplay:10.37,2013-07-27 10:30:00,
2013-07-27 06:35:00,53.1,52.0,30.06,NW,305,0.0,0.0,96,0.00,CLR,BKN,0.00,WeatherDisplay:10.37,2013-07-27 10:35:00,
2013-07-27 06:40:00,53.1,52.0,30.06,NW,305,0.0,0.0,96,0.00,CLR,BKN,0.00,WeatherDisplay:10.37,2013-07-27 10:40:00,
2013-07-27 06:45:00,53.1,52.0,30.06,NW,305,0.0,0.0,96,0.00,CLR,BKN,0.00,WeatherDisplay:10.37,2013-07-27 10:45:00,
2013-07-27 06:50:00,53.6,52.5,30.06,NW,305,0.0,0.0,96,0.00,CLR,BKN,0.00,WeatherDisplay:10.37,2013-07-27 10:50:00,
2013-07-27 06:55:00,53.8,52.7,30.06,NW,305,0.0,0.0,96,0.00,CLR,BKN,0.00,WeatherDisplay:10.37,2013-07-27 10:55:00,
2013-07-27 07:00:00,54.1,53.0,30.06,NW,305,0.0,0.0,96,0.00,CLR,BKN,0.00,WeatherDisplay:10.37,2013-07-27 11:00:00,
2013-07-27 07:10:00,54.5,53.4,30.06,NW,305,0.0,0.0,96,0.00,CLR,BKN,0.00,WeatherDisplay:10.37,2013-07-27 11:10:00,
2013-07-27 07:20:00,54.9,53.7,30.06,NW,305,0.0,0.0,96,0.00,CLR,BKN,0.00,WeatherDisplay:10.37,2013-07-27 11:20:00,
2013-07-27 07:25:00,55.2,54.1,30.06,WNW,289,0.0,0.0,96,0.00,CLR,BKN,0.00,WeatherDisplay:10.37,2013-07-27 11:25:00,
2013-07-27 07:30:00,55.4,54.3,30.06,WSW,258,0.0,0.0,96,0.00,CLR,BKN,0.00,WeatherDisplay:10.37,2013-07-27 11:30:00,
2013-07-27 07:35:00,55.9,54.8,30.06,SW,217,0.0,1.0,96,0.00,CLR,BKN,0.00,WeatherDisplay:10.37,2013-07-27 11:35:00,
2013-07-27 07:45:00,57.2,56.1,30.06,SSW,207,0.0,2.0,96,0.00,CLR,BKN,0.00,WeatherDisplay:10.37,2013-07-27 11:45:00,
2013-07-27 07:50:00,57.7,56.6,30.06,South,169,1.0,2.0,96,0.00,CLR,BKN,0.00,WeatherDisplay:10.37,2013-07-27 11:50:00,
2013-07-27 07:55:00,58.1,57.0,30.06,SSE,168,0.0,0.0,96,0.00,CLR,BKN,0.00,WeatherDisplay:10.37,2013-07-27 11:55:00,
2013-07-27 08:00:00,59.2,58.0,30.06,South,184,1.0,4.0,96,0.00,CLR,BKN,0.00,WeatherDisplay:10.37,2013-07-27 12:00:00,
2013-07-27 08:05:00,59.5,58.4,30.06,South,190,1.0,0.0,96,0.00,CLR,BKN,0.00,WeatherDisplay:10.37,2013-07-27 12:05:00,
2013-07-27 08:10:00,59.7,58.6,30.06,South,186,1.0,1.0,96,0.00,CLR,BKN,0.00,WeatherDisplay:10.37,2013-07-27 12:10:00,
2013-07-27 08:15:00,60.1,58.6,30.06,SSE,164,1.0,1.0,95,0.00,CLR,BKN,0.00,WeatherDisplay:10.37,2013-07-27 12:15:00,
2013-07-27 08:20:00,60.6,59.2,30.06,SSE,155,0.0,0.0,95,0.00,CLR,BKN,0.00,WeatherDisplay:10.37,2013-07-27 12:20:00,
2013-07-27 08:25:00,61.0,59.5,30.06,SSE,155,0.0,0.0,95,0.00,CLR,BKN,0.00,WeatherDisplay:10.37,2013-07-27 12:25:00,
2013-07-27 08:30:00,61.7,60.0,30.06,SSE,155,0.0,0.0,94,0.00,CLR,BKN,0.00,WeatherDisplay:10.37,2013-07-27 12:30:00,
2013-07-27 08:35:00,62.2,60.2,30.06,South,169,0.0,2.0,93,0.00,CLR,BKN,0.00,WeatherDisplay:10.37,2013-07-27 12:35:00,
2013-07-27 08:40:00,62.6,60.5,30.06,SSE,162,0.0,2.0,93,0.00,CLR,BKN,0.00,WeatherDisplay:10.37,2013-07-27 12:40:00,
2013-07-27 08:45:00,63.1,60.5,30.06,SSE,154,1.0,3.0,91,0.00,CLR,BKN,0.00,WeatherDisplay:10.37,2013-07-27 12:45:00,
2013-07-27 08:50:00,63.9,60.9,30.06,SSW,194,1.0,3.0,90,0.00,CLR,BKN,0.00,WeatherDisplay:10.37,2013-07-27 12:50:00,
2013-07-27 09:00:00,64.0,60.1,30.06,SSW,200,2.0,3.0,87,0.00,CLR,BKN,0.00,WeatherDisplay:10.37,2013-07-27 13:00:00,
2013-07-27 09:05:00,64.4,60.1,30.06,SSW,213,2.0,3.0,86,0.00,CLR,BKN,0.00,WeatherDisplay:10.37,2013-07-27 13:05:00,
2013-07-27 09:10:00,64.6,60.3,30.06,SSW,211,2.0,5.0,86,0.00,CLR,BKN,0.00,WeatherDisplay:10.37,2013-07-27 13:10:00,
2013-07-27 09:15:00,64.8,60.5,30.06,SSW,207,2.0,0.0,86,0.00,CLR,BKN,0.00,WeatherDisplay:10.37,2013-07-27 13:15:00,
2013-07-27 09:20:00,65.3,60.7,30.06,SSW,208,2.0,5.0,85,0.00,CLR,BKN,0.00,WeatherDisplay:10.37,2013-07-27 13:20:00,
2013-07-27 09:25:00,65.5,60.8,30.06,SSW,198,2.0,2.0,85,0.00,CLR,BKN,0.00,WeatherDisplay:10.37,2013-07-27 13:25:00,
2013-07-27 09:30:00,65.7,60.7,30.06,South,186,1.0,3.0,84,0.00,CLR,BKN,0.00,WeatherDisplay:10.37,2013-07-27 13:30:00,
2013-07-27 09:35:00,65.7,60.7,30.06,South,180,1.0,3.0,84,0.00,CLR,BKN,0.00,WeatherDisplay:10.37,2013-07-27 13:35:00,
2013-07-27 09:40:00,66.0,60.7,30.06,South,183,1.0,3.0,83,0.00,CLR,BKN,0.00,WeatherDisplay:10.37,2013-07-27 13:40:00,
2013-07-27 09:45:00,66.0,60.4,30.06,South,171,2.0,0.0,82,0.00,CLR,BKN,0.00,WeatherDisplay:10.37,2013-07-27 13:45:00,
2013-07-27 09:50:00,66.0,60.0,30.06,SSE,159,1.0,1.0,81,0.00,CLR,BKN,0.00,WeatherDisplay:10.37,2013-07-27 13:50:00,
2013-07-27 09:55:00,66.4,60.0,30.06,South,169,1.0,1.0,80,0.00,CLR,BKN,0.00,WeatherDisplay:10.37,2013-07-27 13:55:00,
2013-07-27 10:00:00,67.1,60.7,30.06,SSW,192,1.0,3.0,80,0.00,CLR,BKN,0.00,WeatherDisplay:10.37,2013-07-27 14:00:00,
2013-07-27 10:05:00,67.3,60.2,30.06,SSW,196,2.0,4.0,78,0.00,CLR,BKN,0.00,WeatherDisplay:10.37,2013-07-27 14:05:00,
2013-07-27 10:10:00,67.5,60.0,30.06,SSW,196,1.0,4.0,77,0.00,CLR,BKN,0.00,WeatherDisplay:10.37,2013-07-27 14:10:00,
2013-07-27 10:15:00,68.2,61.1,30.06,SSW,199,2.0,3.0,78,0.00,CLR,BKN,0.00,WeatherDisplay:10.37,2013-07-27 14:15:00,
2013-07-27 10:20:00,68.9,61.4,30.06,SSW,194,2.0,3.0,77,0.00,CLR,BKN,0.00,WeatherDisplay:10.37,2013-07-27 14:20:00,
2013-07-27 10:25:00,69.3,61.4,30.06,SSW,192,2.0,3.0,76,0.00,CLR,BKN,0.00,WeatherDisplay:10.37,2013-07-27 14:25:00,
2013-07-27 10:35:00,71.6,63.3,30.06,SSW,208,2.0,2.0,75,0.00,CLR,BKN,0.00,WeatherDisplay:10.37,2013-07-27 14:35:00,
2013-07-27 10:40:00,72.0,63.2,30.06,SSW,213,2.0,3.0,74,0.00,CLR,BKN,0.00,WeatherDisplay:10.37,2013-07-27 14:40:00,
2013-07-27 10:45:00,72.9,63.7,30.06,South,189,2.0,4.0,73,0.00,CLR,BKN,0.00,WeatherDisplay:10.37,2013-07-27 14:45:00,
2013-07-27 10:50:00,73.6,64.4,30.06,South,182,2.0,4.0,73,0.00,CLR,BKN,0.00,WeatherDisplay:10.37,2013-07-27 14:50:00,
2013-07-27 10:55:00,73.9,64.7,30.06,South,179,2.0,0.0,73,0.00,CLR,BKN,0.00,WeatherDisplay:10.37,2013-07-27 14:55:00,
2013-07-27 11:00:00,74.8,65.6,30.06,SSW,201,2.0,4.0,73,0.00,CLR,BKN,0.00,WeatherDisplay:10.37,2013-07-27 15:00:00,
2013-07-27 11:05:00,75.2,64.3,30.06,SW,229,1.0,4.0,69,0.00,CLR,BKN,0.00,WeatherDisplay:10.37,2013-07-27 15:05:00,
2013-07-27 11:15:00,75.9,64.6,30.06,South,186,2.0,2.0,68,0.00,CLR,BKN,0.00,WeatherDisplay:10.37,2013-07-27 15:15:00,
2013-07-27 11:20:00,76.3,64.1,30.06,WSW,256,2.0,5.0,66,0.00,CLR,BKN,0.00,WeatherDisplay:10.37,2013-07-27 15:20:00,
2013-07-27 11:25:00,76.5,65.1,30.06,WSW,238,2.0,5.0,68,0.00,CLR,BKN,0.00,WeatherDisplay:10.37,2013-07-27 15:25:00,
2013-07-27 11:36:00,77.4,66.0,30.06,SE,140,2.0,2.0,68,0.00,CLR,BKN,0.00,WeatherDisplay:10.37,2013-07-27 15:36:00,
2013-07-27 11:41:00,77.9,64.7,30.06,SSE,164,2.0,2.0,64,0.00,CLR,BKN,0.00,WeatherDisplay:10.37,2013-07-27 15:41:00,
2013-07-27 11:46:00,78.1,65.4,30.06,SSW,202,1.0,4.0,65,0.00,CLR,BKN,0.00,WeatherDisplay:10.37,2013-07-27 15:46:00,
2013-07-27 11:56:00,79.0,64.4,30.06,SW,232,2.0,5.0,61,0.00,CLR,BKN,0.00,WeatherDisplay:10.37,2013-07-27 15:56:00,
2013-07-27 12:01:00,79.0,64.4,30.06,SW,229,3.0,5.0,61,0.00,CLR,BKN,0.00,WeatherDisplay:10.37,2013-07-27 16:01:00,
2013-07-27 12:06:00,78.1,62.1,30.06,SW,222,5.0,6.0,58,0.00,CLR,BKN,0.00,WeatherDisplay:10.37,2013-07-27 16:06:00,
2013-07-27 12:11:00,77.5,62.6,30.06,SSW,212,3.0,6.0,60,0.00,CLR,BKN,0.00,WeatherDisplay:10.37,2013-07-27 16:11:00,
2013-07-27 12:16:00,78.3,64.2,30.06,SSW,193,3.0,3.0,62,0.00,CLR,BKN,0.00,WeatherDisplay:10.37,2013-07-27 16:16:00,
2013-07-27 12:20:00,78.3,63.7,30.06,SW,216,3.0,3.0,61,0.00,CLR,BKN,0.00,WeatherDisplay:10.37,2013-07-27 16:20:00,
2013-07-27 12:25:00,78.3,63.7,30.06,South,186,3.0,3.0,61,0.00,CLR,BKN,0.00,WeatherDisplay:10.37,2013-07-27 16:25:00,
2013-07-27 12:30:00,78.6,64.5,30.06,SSE,151,2.0,2.0,62,0.00,CLR,BKN,0.00,WeatherDisplay:10.37,2013-07-27 16:30:00,
2013-07-27 12:36:00,77.9,62.4,30.06,SW,216,2.0,5.0,59,0.00,CLR,BKN,0.00,WeatherDisplay:10.37,2013-07-27 16:36:00,
2013-07-27 12:45:00,79.2,63.6,30.06,SSE,165,3.0,5.0,59,0.00,CLR,BKN,0.00,WeatherDisplay:10.37,2013-07-27 16:45:00,
2013-07-27 12:50:00,79.7,63.6,30.06,SW,235,3.0,8.0,58,0.00,CLR,BKN,0.00,WeatherDisplay:10.37,2013-07-27 16:50:00,
2013-07-27 12:55:00,79.9,61.7,30.06,SW,225,5.0,8.0,54,0.00,CLR,BKN,0.00,WeatherDisplay:10.37,2013-07-27 16:55:00,
2013-07-27 13:00:00,80.1,64.0,30.06,WSW,244,5.0,7.0,58,0.00,CLR,BKN,0.00,WeatherDisplay:10.37,2013-07-27 17:00:00,
2013-07-27 13:05:00,78.6,62.6,30.06,West,259,5.0,5.0,58,0.00,CLR,BKN,0.00,WeatherDisplay:10.37,2013-07-27 17:05:00,
2013-07-27 13:15:00,79.0,61.4,30.06,South,183,3.0,3.0,55,0.00,CLR,BKN,0.00,WeatherDisplay:10.37,2013-07-27 17:15:00,
2013-07-27 13:20:00,79.7,63.6,30.06,SW,232,2.0,5.0,58,0.00,CLR,BKN,0.00,WeatherDisplay:10.37,2013-07-27 17:20:00,
2013-07-27 13:25:00,79.7,62.6,30.06,SW,233,2.0,2.0,56,0.00,CLR,BKN,0.00,WeatherDisplay:10.37,2013-07-27 17:25:00,
2013-07-27 13:30:00,79.7,62.1,30.06,SSW,211,3.0,7.0,55,0.00,CLR,BKN,0.00,WeatherDisplay:10.37,2013-07-27 17:30:00,
2013-07-27 13:35:00,80.2,61.6,30.06,SE,145,3.0,7.0,53,0.00,CLR,BKN,0.00,WeatherDisplay:10.37,2013-07-27 17:35:00,
2013-07-27 13:40:00,80.4,63.3,30.06,East,101,3.0,3.0,56,0.00,CLR,BKN,0.00,WeatherDisplay:10.37,2013-07-27 17:40:00,
2013-07-27 13:45:00,81.1,62.9,30.06,SE,145,5.0,6.0,54,0.00,CLR,BKN,0.00,WeatherDisplay:10.37,2013-07-27 17:45:00,
2013-07-27 13:50:00,80.8,63.1,30.03,WSW,254,3.0,4.0,55,0.00,CLR,BKN,0.00,WeatherDisplay:10.37,2013-07-27 17:50:00,
2013-07-27 13:55:00,80.8,64.1,30.03,West,272,3.0,4.0,57,0.00,CLR,BKN,0.00,WeatherDisplay:10.37,2013-07-27 17:55:00,
2013-07-27 14:00:00,81.0,63.3,30.03,SW,218,5.0,6.0,55,0.00,CLR,BKN,0.00,WeatherDisplay:10.37,2013-07-27 18:00:00,
2013-07-27 14:05:00,81.9,63.1,30.06,SW,215,5.0,8.0,53,0.00,CLR,BKN,0.00,WeatherDisplay:10.37,2013-07-27 18:05:00,
2013-07-27 14:10:00,82.2,64.4,30.06,SW,214,5.0,8.0,55,0.00,CLR,BKN,0.00,WeatherDisplay:10.37,2013-07-27 18:10:00,
2013-07-27 14:15:00,81.9,63.6,30.03,SSE,164,5.0,5.0,54,0.00,CLR,BKN,0.00,WeatherDisplay:10.37,2013-07-27 18:15:00,
2013-07-27 14:20:00,81.5,63.8,30.03,SE,140,5.0,6.0,55,0.00,CLR,BKN,0.00,WeatherDisplay:10.37,2013-07-27 18:20:00,
2013-07-27 14:25:00,81.5,64.8,30.03,SSE,149,5.0,6.0,57,0.00,CLR,BKN,0.00,WeatherDisplay:10.37,2013-07-27 18:25:00,
2013-07-27 14:30:00,82.0,65.3,30.03,SE,129,5.0,6.0,57,0.00,CLR,BKN,0.00,WeatherDisplay:10.37,2013-07-27 18:30:00,
2013-07-27 14:35:00,82.2,65.0,30.03,SSE,157,5.0,6.0,56,0.00,CLR,BKN,0.00,WeatherDisplay:10.37,2013-07-27 18:35:00,
2013-07-27 14:45:00,81.7,63.4,30.03,SSE,160,5.0,6.0,54,0.00,CLR,BKN,0.00,WeatherDisplay:10.37,2013-07-27 18:45:00,
2013-07-27 14:50:00,81.7,63.4,30.03,SSE,161,5.0,5.0,54,0.00,CLR,BKN,0.00,WeatherDisplay:10.37,2013-07-27 18:50:00,
2013-07-27 14:55:00,81.7,63.4,30.03,SSE,153,5.0,5.0,54,0.00,CLR,BKN,0.00,WeatherDisplay:10.37,2013-07-27 18:55:00,
2013-07-27 15:00:00,81.3,63.1,30.03,South,178,5.0,5.0,54,0.00,CLR,BKN,0.00,WeatherDisplay:10.37,2013-07-27 19:00:00,
2013-07-27 15:05:00,81.1,62.4,30.03,SW,232,3.0,3.0,53,0.00,CLR,BKN,0.00,WeatherDisplay:10.37,2013-07-27 19:05:00,
2013-07-27 15:10:00,80.8,63.1,30.03,SW,235,3.0,3.0,55,0.00,CLR,BKN,0.00,WeatherDisplay:10.37,2013-07-27 19:10:00,
2013-07-27 15:15:00,80.8,62.6,30.03,South,186,3.0,5.0,54,0.00,CLR,BKN,0.00,WeatherDisplay:10.37,2013-07-27 19:15:00,
2013-07-27 15:25:00,81.5,63.3,30.03,South,186,5.0,5.0,54,0.00,CLR,BKN,0.00,WeatherDisplay:10.37,2013-07-27 19:25:00,
2013-07-27 15:30:00,81.5,62.2,30.03,South,190,3.0,5.0,52,0.00,CLR,BKN,0.00,WeatherDisplay:10.37,2013-07-27 19:30:00,
2013-07-27 15:40:00,81.1,62.9,30.03,South,174,3.0,3.0,54,0.00,CLR,BKN,0.00,WeatherDisplay:10.37,2013-07-27 19:40:00,
2013-07-27 15:45:00,80.8,62.1,30.03,SSE,150,2.0,3.0,53,0.00,CLR,BKN,0.00,WeatherDisplay:10.37,2013-07-27 19:45:00,
2013-07-27 15:50:00,81.0,63.8,30.03,SSE,159,2.0,3.0,56,0.00,CLR,BKN,0.00,WeatherDisplay:10.37,2013-07-27 19:50:00,
2013-07-27 15:55:00,81.1,63.4,30.03,South,188,1.0,1.0,55,0.00,CLR,BKN,0.00,WeatherDisplay:10.37,2013-07-27 19:55:00,
2013-07-27 16:00:00,81.1,62.4,30.03,South,191,2.0,6.0,53,0.00,CLR,BKN,0.00,WeatherDisplay:10.37,2013-07-27 20:00:00,
2013-07-27 16:05:00,80.8,62.1,30.03,SSE,160,3.0,6.0,53,0.00,CLR,BKN,0.00,WeatherDisplay:10.37,2013-07-27 20:05:00,
2013-07-27 16:10:00,80.1,61.9,30.03,SSE,157,2.0,3.0,54,0.00,CLR,BKN,0.00,WeatherDisplay:10.37,2013-07-27 20:10:00,
2013-07-27 16:15:00,79.7,62.1,30.03,ESE,122,3.0,3.0,55,0.00,CLR,BKN,0.00,WeatherDisplay:10.37,2013-07-27 20:15:00,
2013-07-27 16:20:00,79.0,60.9,30.03,SE,141,3.0,6.0,54,0.00,CLR,BKN,0.00,WeatherDisplay:10.37,2013-07-27 20:20:00,
2013-07-27 16:25:00,79.3,62.3,30.03,South,182,3.0,6.0,56,0.00,CLR,BKN,0.00,WeatherDisplay:10.37,2013-07-27 20:25:00,
2013-07-27 16:30:00,79.9,62.3,30.03,SSW,198,3.0,5.0,55,0.00,CLR,BKN,0.00,WeatherDisplay:10.37,2013-07-27 20:30:00,
2013-07-27 16:35:00,79.7,62.1,30.03,South,174,5.0,5.0,55,0.00,CLR,BKN,0.00,WeatherDisplay:10.37,2013-07-27 20:35:00,
2013-07-27 16:40:00,79.7,62.1,30.03,South,181,3.0,6.0,55,0.00,CLR,BKN,0.00,WeatherDisplay:10.37,2013-07-27 20:40:00,
2013-07-27 16:45:00,79.3,61.8,30.03,SSW,192,5.0,6.0,55,0.00,CLR,BKN,0.00,WeatherDisplay:10.37,2013-07-27 20:45:00,
2013-07-27 16:50:00,79.3,62.8,30.03,SSW,210,5.0,6.0,57,0.00,CLR,BKN,0.00,WeatherDisplay:10.37,2013-07-27 20:50:00,
2013-07-27 16:55:00,79.2,62.1,30.03,SSW,196,5.0,6.0,56,0.00,CLR,BKN,0.00,WeatherDisplay:10.37,2013-07-27 20:55:00,
2013-07-27 17:00:00,79.3,61.8,30.03,South,187,5.0,5.0,55,0.00,CLR,BKN,0.00,WeatherDisplay:10.37,2013-07-27 21:00:00,
2013-07-27 17:05:00,78.8,61.8,30.03,SSE,162,5.0,6.0,56,0.00,CLR,BKN,0.00,WeatherDisplay:10.37,2013-07-27 21:05:00,
2013-07-27 17:10:00,78.8,62.3,30.03,SSE,156,5.0,6.0,57,0.00,CLR,BKN,0.00,WeatherDisplay:10.37,2013-07-27 21:10:00,
2013-07-27 17:15:00,78.4,62.4,30.00,South,172,3.0,4.0,58,0.00,CLR,BKN,0.00,WeatherDisplay:10.37,2013-07-27 21:15:00,
2013-07-27 17:20:00,77.9,62.4,30.00,SSW,196,3.0,3.0,59,0.00,CLR,BKN,0.00,WeatherDisplay:10.37,2013-07-27 21:20:00,
2013-07-27 17:25:00,77.7,62.2,30.00,SSW,193,2.0,2.0,59,0.00,CLR,BKN,0.00,WeatherDisplay:10.37,2013-07-27 21:25:00,
2013-07-27 17:30:00,77.2,62.7,30.00,South,178,1.0,0.0,61,0.00,CLR,BKN,0.00,WeatherDisplay:10.37,2013-07-27 21:30:00,
2013-07-27 17:35:00,77.2,62.7,30.00,South,183,1.0,5.0,61,0.00,CLR,BKN,0.00,WeatherDisplay:10.37,2013-07-27 21:35:00,
2013-07-27 17:40:00,77.5,62.1,30.00,South,184,1.0,5.0,59,0.00,CLR,BKN,0.00,WeatherDisplay:10.37,2013-07-27 21:40:00,
2013-07-27 17:45:00,77.7,62.7,30.00,South,182,2.0,0.0,60,0.00,CLR,BKN,0.00,WeatherDisplay:10.37,2013-07-27 21:45:00,
2013-07-27 17:50:00,77.4,63.3,30.00,South,175,2.0,5.0,62,0.00,CLR,BKN,0.00,WeatherDisplay:10.37,2013-07-27 21:50:00,
2013-07-27 17:55:00,77.2,62.7,30.00,South,177,2.0,3.0,61,0.00,CLR,BKN,0.00,WeatherDisplay:10.37,2013-07-27 21:55:00,
2013-07-27 18:00:00,76.8,61.9,30.00,South,185,2.0,3.0,60,0.00,CLR,BKN,0.00,WeatherDisplay:10.37,2013-07-27 22:00:00,
2013-07-27 18:05:00,76.5,62.0,30.00,South,173,2.0,3.0,61,0.00,CLR,BKN,0.00,WeatherDisplay:10.37,2013-07-27 22:05:00,
2013-07-27 18:15:00,75.7,61.8,30.00,SSE,165,1.0,1.0,62,0.00,CLR,BKN,0.00,WeatherDisplay:10.37,2013-07-27 22:15:00,
2013-07-27 18:20:00,75.4,62.4,30.00,SSE,160,1.0,0.0,64,0.00,CLR,BKN,0.00,WeatherDisplay:10.37,2013-07-27 22:20:00,
2013-07-27 18:25:00,75.4,62.4,30.00,SSE,162,1.0,0.0,64,0.00,CLR,BKN,0.00,WeatherDisplay:10.37,2013-07-27 22:25:00,
2013-07-27 18:30:00,75.7,62.7,30.00,South,178,0.0,1.0,64,0.00,CLR,BKN,0.00,WeatherDisplay:10.37,2013-07-27 22:30:00,
2013-07-27 18:35:00,75.9,62.4,30.00,SSE,168,0.0,1.0,63,0.00,CLR,BKN,0.00,WeatherDisplay:10.37,2013-07-27 22:35:00,
2013-07-27 18:40:00,75.7,62.7,30.00,SSE,153,0.0,1.0,64,0.00,CLR,BKN,0.00,WeatherDisplay:10.37,2013-07-27 22:40:00,
2013-07-27 18:45:00,75.7,62.7,30.00,SE,136,0.0,0.0,64,0.00,CLR,BKN,0.00,WeatherDisplay:10.37,2013-07-27 22:45:00,
2013-07-27 18:50:00,74.8,62.3,30.00,SSE,164,0.0,0.0,65,0.00,CLR,BKN,0.00,WeatherDisplay:10.37,2013-07-27 22:50:00,
2013-07-27 18:55:00,74.8,62.3,30.00,South,179,0.0,0.0,65,0.00,CLR,BKN,0.00,WeatherDisplay:10.37,2013-07-27 22:55:00,
2013-07-27 19:00:00,73.9,61.9,30.00,South,185,0.0,0.0,66,0.00,CLR,BKN,0.00,WeatherDisplay:10.37,2013-07-27 23:00:00,
2013-07-27 19:05:00,73.2,61.6,30.00,South,185,0.0,0.0,67,0.00,CLR,BKN,0.00,WeatherDisplay:10.37,2013-07-27 23:05:00,
2013-07-27 19:10:00,73.0,61.9,30.00,South,185,0.0,0.0,68,0.00,CLR,BKN,0.00,WeatherDisplay:10.37,2013-07-27 23:10:00,
2013-07-27 19:20:00,72.1,61.4,30.00,South,185,0.0,0.0,69,0.00,CLR,BKN,0.00,WeatherDisplay:10.37,2013-07-27 23:20:00,
2013-07-27 19:25:00,71.8,61.1,30.00,South,185,0.0,0.0,69,0.00,CLR,BKN,0.00,WeatherDisplay:10.37,2013-07-27 23:25:00,
2013-07-27 19:30:00,71.6,61.3,30.00,South,185,0.0,0.0,70,0.00,CLR,BKN,0.00,WeatherDisplay:10.37,2013-07-27 23:30:00,
2013-07-27 19:35:00,71.2,61.4,30.00,South,185,0.0,0.0,71,0.00,CLR,BKN,0.00,WeatherDisplay:10.37,2013-07-27 23:35:00,
2013-07-27 19:40:00,71.1,61.2,30.00,South,184,0.0,0.0,71,0.00,CLR,BKN,0.00,WeatherDisplay:10.37,2013-07-27 23:40:00,
2013-07-27 19:50:00,70.3,60.9,30.00,SSE,160,0.0,0.0,72,0.00,CLR,BKN,0.00,WeatherDisplay:10.37,2013-07-27 23:50:00,
2013-07-27 20:00:00,69.4,60.8,30.00,SSE,156,0.0,0.0,74,0.00,CLR,BKN,0.00,WeatherDisplay:10.37,2013-07-28 00:00:00,
2013-07-27 20:05:00,69.3,60.6,30.00,SSW,192,0.0,0.0,74,0.00,CLR,BKN,0.00,WeatherDisplay:10.37,2013-07-28 00:05:00,
2013-07-27 20:10:00,69.1,60.4,30.00,SSW,213,0.0,0.0,74,0.00,CLR,BKN,0.00,WeatherDisplay:10.37,2013-07-28 00:10:00,
2013-07-27 20:20:00,68.9,60.6,30.00,SW,216,0.0,0.0,75,0.00,CLR,BKN,0.00,WeatherDisplay:10.37,2013-07-28 00:20:00,
2013-07-27 20:30:00,68.5,60.3,30.00,SSW,204,0.0,0.0,75,0.00,CLR,BKN,0.00,WeatherDisplay:10.37,2013-07-28 00:30:00,
2013-07-27 20:36:00,68.0,60.2,30.00,South,190,0.0,0.0,76,0.00,CLR,BKN,0.00,WeatherDisplay:10.37,2013-07-28 00:36:00,
2013-07-27 20:46:00,67.5,60.0,30.03,South,180,0.0,0.0,77,0.00,CLR,BKN,0.00,WeatherDisplay:10.37,2013-07-28 00:46:00,
2013-07-27 20:51:00,67.3,60.2,30.03,South,176,0.0,0.0,78,0.00,CLR,BKN,0.00,WeatherDisplay:10.37,2013-07-28 00:51:00,
2013-07-27 20:56:00,67.1,59.6,30.03,South,175,0.0,0.0,77,0.00,CLR,BKN,0.00,WeatherDisplay:10.37,2013-07-28 00:56:00,
2013-07-27 21:06:00,66.6,59.5,30.03,South,175,0.0,0.0,78,0.00,CLR,BKN,0.00,WeatherDisplay:10.37,2013-07-28 01:06:00,
2013-07-27 21:11:00,66.4,59.3,30.03,South,175,0.0,0.0,78,0.00,CLR,BKN,0.00,WeatherDisplay:10.37,2013-07-28 01:11:00,
2013-07-27 21:16:00,66.0,59.3,30.03,South,175,0.0,0.0,79,0.00,CLR,BKN,0.00,WeatherDisplay:10.37,2013-07-28 01:16:00,
2013-07-27 21:21:00,65.8,59.5,30.03,South,175,0.0,0.0,80,0.00,CLR,BKN,0.00,WeatherDisplay:10.37,2013-07-28 01:21:00,
2013-07-27 21:25:00,65.7,59.3,30.03,South,175,0.0,0.0,80,0.00,CLR,BKN,0.00,WeatherDisplay:10.37,2013-07-28 01:25:00,
2013-07-27 21:30:00,65.3,59.0,30.03,South,175,0.0,0.0,80,0.00,CLR,BKN,0.00,WeatherDisplay:10.37,2013-07-28 01:30:00,
2013-07-27 21:40:00,64.9,59.0,30.03,South,175,0.0,0.0,81,0.00,CLR,BKN,0.00,WeatherDisplay:10.37,2013-07-28 01:40:00,
2013-07-27 21:45:00,64.8,58.8,30.03,South,175,0.0,0.0,81,0.00,CLR,BKN,0.00,WeatherDisplay:10.37,2013-07-28 01:45:00,
2013-07-27 21:50:00,64.6,59.0,30.03,South,183,0.0,0.0,82,0.00,CLR,BKN,0.00,WeatherDisplay:10.37,2013-07-28 01:50:00,
2013-07-27 21:55:00,64.4,58.8,30.03,South,187,0.0,0.0,82,0.00,CLR,BKN,0.00,WeatherDisplay:10.37,2013-07-28 01:55:00,
2013-07-27 22:05:00,64.2,59.3,30.03,South,191,0.0,0.0,84,0.00,CLR,BKN,0.00,WeatherDisplay:10.37,2013-07-28 02:05:00,
2013-07-27 22:10:00,64.2,59.3,30.03,South,176,0.0,0.0,84,0.00,CLR,BKN,0.00,WeatherDisplay:10.37,2013-07-28 02:10:00,
2013-07-27 22:15:00,64.2,59.3,30.03,South,169,0.0,1.0,84,0.00,CLR,BKN,0.00,WeatherDisplay:10.37,2013-07-28 02:15:00,
2013-07-27 22:20:00,64.0,59.1,30.03,South,184,0.0,2.0,84,0.00,CLR,BKN,0.00,WeatherDisplay:10.37,2013-07-28 02:20:00,
2013-07-27 22:25:00,64.0,59.1,30.03,South,186,0.0,2.0,84,0.00,CLR,BKN,0.00,WeatherDisplay:10.37,2013-07-28 02:25:00,
2013-07-27 22:30:00,64.0,59.4,30.03,SSW,199,1.0,5.0,85,0.00,CLR,BKN,0.00,WeatherDisplay:10.37,2013-07-28 02:30:00,
2013-07-27 22:35:00,64.0,59.4,30.03,SW,218,2.0,4.0,85,0.00,CLR,BKN,0.00,WeatherDisplay:10.37,2013-07-28 02:35:00,
2013-07-27 22:45:00,63.9,59.6,30.03,SSW,212,2.0,0.0,86,0.00,CLR,BKN,0.00,WeatherDisplay:10.37,2013-07-28 02:45:00,
2013-07-27 22:50:00,63.9,59.9,30.03,SSW,195,1.0,1.0,87,0.00,CLR,BKN,0.00,WeatherDisplay:10.37,2013-07-28 02:50:00,
2013-07-27 23:00:00,63.9,59.6,30.03,South,183,0.0,1.0,86,0.00,CLR,BKN,0.00,WeatherDisplay:10.37,2013-07-28 03:00:00,
2013-07-27 23:05:00,63.7,59.4,30.03,South,175,1.0,3.0,86,0.00,CLR,BKN,0.00,WeatherDisplay:10.37,2013-07-28 03:05:00,
2013-07-27 23:10:00,63.7,59.7,30.03,SSW,193,1.0,3.0,87,0.00,CLR,BKN,0.00,WeatherDisplay:10.37,2013-07-28 03:10:00,
2013-07-27 23:20:00,63.3,59.4,30.03,South,181,2.0,5.0,87,0.00,CLR,BKN,0.00,WeatherDisplay:10.37,2013-07-28 03:20:00,
2013-07-27 23:25:00,63.1,59.2,30.03,South,186,2.0,0.0,87,0.00,CLR,BKN,0.00,WeatherDisplay:10.37,2013-07-28 03:25:00,
2013-07-27 23:30:00,32.0,-31.6,30.03,SSW,195,1.0,0.0,5,0.00,CLR,BKN,0.00,WeatherDisplay:10.37,2013-07-28 03:30:00,
2013-07-27 23:35:00,62.8,58.9,30.03,SSW,195,1.0,0.0,87,0.00,CLR,BKN,0.00,WeatherDisplay:10.37,2013-07-28 03:35:00,
2013-07-27 23:40:00,62.8,58.9,30.03,SSW,195,1.0,0.0,87,0.00,CLR,BKN,0.00,WeatherDisplay:10.37,2013-07-28 03:40:00,
2013-07-27 23:45:00,62.4,58.8,30.03,SSW,195,0.0,0.0,88,0.00,CLR,BKN,0.00,WeatherDisplay:10.37,2013-07-28 03:45:00,
2013-07-27 23:50:00,62.2,58.6,30.03,South,172,0.0,0.0,88,0.00,CLR,BKN,0.00,WeatherDisplay:10.37,2013-07-28 03:50:00,
2013-07-27 23:55:00,62.2,58.6,30.03,SSE,152,0.0,0.0,88,0.00,CLR,BKN,0.00,WeatherDisplay:10.37,2013-07-28 03:55:00,